^^
Grace C. Lehan Memorial Weather Station Historical Data
Daily Summary for June 22, 2022 Units:  English    Metric   Both
Daily Weekly Monthly Yearly
  High: Low: Average:
Temperature: 65.1 °F 59.2 °F 61.6 °F
Dew Point: 61.4 °F 57.8 °F 59.5 °F
Humidity: 95% 82% 93%
Wind Speed: 0.9mph 0mph 0mph
Wind Gust: 6mph - -
Wind- - SE
Pressure: 30.08 in 30.00 in -
Precipitation: 0.00 in    
 
 
Tabular Data for June 22, 2022
Time Temperature Dew Point Pressure Wind Wind Speed Wind Gust Humidity Rainfall Rate (Hourly) solar
00:04 65.1 °F 59.5 °F 30.08 in Calm     82% 0.00 in 0 W/m2
00:09 65 °F 59.4 °F 30.08 in Calm     82% 0.00 in 0 W/m2
00:14 65 °F 59.3 °F 30.08 in Calm     82% 0.00 in 0 W/m2
00:19 64.9 °F 59.3 °F 30.08 in Calm     82.2% 0.00 in 0 W/m2
00:24 64.8 °F 59.3 °F 30.08 in Calm     82.3% 0.00 in 0 W/m2
00:29 64.7 °F 59.1 °F 30.07 in Calm     82% 0.00 in 0 W/m2
00:34 64.6 °F 59 °F 30.07 in Calm     82% 0.00 in 0 W/m2
00:39 64.5 °F 59.2 °F 30.06 in Calm     83% 0.00 in 0 W/m2
00:44 64.4 °F 59.1 °F 30.06 in Calm     83% 0.00 in 0 W/m2
00:49 64.3 °F 59.2 °F 30.06 in Calm     83.6% 0.00 in 0 W/m2
00:54 64.2 °F 59.3 °F 30.06 in Calm     84% 0.00 in 0 W/m2
00:59 64.1 °F 59.2 °F 30.06 in Calm     84% 0.00 in 0 W/m2
01:04 64 °F 59.2 °F 30.06 in Calm     84.3% 0.00 in 0 W/m2
01:09 63.9 °F 59.2 °F 30.06 in Calm     84.5% 0.00 in 0 W/m2
01:14 63.8 °F 59.2 °F 30.05 in Calm     85% 0.00 in 0 W/m2
01:19 63.7 °F 59.1 °F 30.06 in Calm     85% 0.00 in 0 W/m2
01:24 63.6 °F 59 °F 30.06 in Calm     85% 0.00 in 0 W/m2
01:29 63.6 °F 59 °F 30.06 in Calm     85.1% 0.00 in 0 W/m2
01:34 63.6 °F 59.3 °F 30.06 in Calm     86% 0.00 in 0 W/m2
01:39 63.5 °F 59.2 °F 30.06 in Calm     86% 0.00 in 0 W/m2
01:44 63.4 °F 59.2 °F 30.05 in Calm     86% 0.00 in 0 W/m2
01:49 63.4 °F 59.1 °F 30.05 in Calm     86% 0.00 in 0 W/m2
01:54 63.3 °F 59.1 °F 30.05 in Calm     86% 0.00 in 0 W/m2
01:59 63.3 °F 59.3 °F 30.05 in Calm     86.6% 0.00 in 0 W/m2
02:04 63.4 °F 59.5 °F 30.05 in Calm     87% 0.00 in 0 W/m2
02:09 63.4 °F 59.5 °F 30.05 in Calm     87% 0.00 in 0 W/m2
02:14 63.4 °F 59.6 °F 30.06 in Calm     87.4% 0.00 in 0 W/m2
02:19 63.5 °F 59.9 °F 30.06 in Calm     88% 0.00 in 0 W/m2
02:24 63.5 °F 59.9 °F 30.06 in Calm     88% 0.00 in 0 W/m2
02:29 63.4 °F 59.8 °F 30.05 in Calm     88% 0.00 in 0 W/m2
02:34 63.4 °F 59.8 °F 30.05 in Calm     88% 0.00 in 0 W/m2
02:39 63.3 °F 59.7 °F 30.05 in Calm     88% 0.01 in 0 W/m2
02:44 63.3 °F 59.8 °F 30.05 in Calm     88.3% 0.01 in 0 W/m2
02:49 63.2 °F 59.9 °F 30.05 in Calm     89% 0.02 in 0 W/m2
02:54 63.3 °F 60.1 °F 30.05 in Calm     89.3% 0.02 in 0 W/m2
02:59 63.4 °F 60.4 °F 30.05 in Calm     90% 0.02 in 0 W/m2
03:04 63.4 °F 60.4 °F 30.05 in Calm     90% 0.02 in 0 W/m2
03:09 63.5 °F 60.5 °F 30.04 in Calm     90.1% 0.02 in 0 W/m2
03:14 63.5 °F 60.9 °F 30.04 in Calm     91% 0.02 in 0 W/m2
03:19 63.7 °F 61 °F 30.04 in Calm     91% 0.03 in 0 W/m2
03:24 63.8 °F 61.4 °F 30.04 in Calm     91.8% 0.03 in 0 W/m2
03:29 63.8 °F 61.4 °F 30.04 in Calm     92% 0.03 in 0 W/m2
03:34 63.8 °F 61.4 °F 30.04 in Calm   1 mph 92% 0.03 in 0 W/m2
03:39 63.6 °F 61.2 °F 30.04 in Calm   1 mph 92% 0.03 in 0 W/m2
03:44 63.5 °F 61 °F 30.04 in Calm   1 mph 91.6% 0.03 in 0 W/m2
03:49 63.4 °F 61.1 °F 30.04 in Calm   1 mph 92% 0.03 in 0 W/m2
03:54 63.3 °F 60.9 °F 30.04 in Calm   1 mph 92% 0.03 in 0 W/m2
03:59 63.2 °F 60.8 °F 30.04 in Calm   1 mph 92% 0.03 in 0 W/m2
04:04 62.9 °F 60.2 °F 30.04 in Calm     91% 0.03 in 0 W/m2
04:09 62.7 °F 60.1 °F 30.04 in NNW 0.1 mph 2 mph 91% 0.03 in 0 W/m2
04:14 62.6 °F 59.9 °F 30.04 in NNW 0.2 mph 3 mph 91% 0.03 in 0 W/m2
04:19 62.4 °F 59.7 °F 30.04 in East 0.4 mph 6 mph 91% 0.03 in 0 W/m2
04:24 62.1 °F 59.5 °F 30.04 in Calm   6 mph 91% 0.03 in 0 W/m2
04:29 62 °F 59.3 °F 30.04 in SE 0.2 mph 6 mph 91% 0.04 in 0 W/m2
04:34 61.7 °F 58.8 °F 30.04 in ESE 0.9 mph 6 mph 90.1% 0.04 in 0 W/m2
04:39 61.6 °F 58.9 °F 30.04 in Calm   5 mph 90.8% 0.01 in 0 W/m2
04:44 61.5 °F 58.9 °F 30.04 in Calm   5 mph 91% 0.01 in 0 W/m2
04:49 61.4 °F 58.8 °F 30.04 in Calm   5 mph 91% 0.01 in 0 W/m2
04:54 61.4 °F 58.7 °F 30.04 in Calm   5 mph 91% 0.01 in 0 W/m2
04:59 61.3 °F 58.7 °F 30.04 in Calm   5 mph 91% 0.01 in 0 W/m2
05:04 61.3 °F 58.6 °F 30.04 in Calm   5 mph 91% 0.01 in 0 W/m2
05:09 61.2 °F 58.6 °F 30.04 in Calm     91% 0.00 in 0 W/m2
05:14 61.2 °F 58.5 °F 30.04 in Calm     91% 0.01 in 0 W/m2
05:19 61.1 °F 58.6 °F 30.04 in Calm     91.6% 0.01 in 0 W/m2
05:24 61.1 °F 58.8 °F 30.04 in Calm     92% 0.01 in 0 W/m2
05:29 61.1 °F 58.7 °F 30.04 in Calm     92% 0.01 in 0 W/m2
05:34 61 °F 58.7 °F 30.05 in Calm     92% 0.01 in 0 W/m2
05:39 61 °F 58.7 °F 30.05 in Calm     92% 0.01 in 0 W/m2
05:44 61 °F 58.6 °F 30.05 in Calm     92% 0.01 in 0 W/m2
05:49 61 °F 58.7 °F 30.05 in Calm     92.2% 0.01 in 0 W/m2
05:54 61 °F 58.7 °F 30.05 in Calm     92.2% 0.01 in 0 W/m2
05:59 61 °F 58.8 °F 30.05 in Calm   1 mph 92.6% 0.02 in 0 W/m2
06:04 61 °F 59 °F 30.05 in Calm   1 mph 93% 0.02 in 0 W/m2
06:09 60.9 °F 58.9 °F 30.05 in Calm   2 mph 93% 0.02 in 0 W/m2
06:14 60.9 °F 58.9 °F 30.05 in ESE 0.7 mph 5 mph 93% 0.03 in 0 W/m2
06:19 60.8 °F 58.7 °F 30.05 in ESE 0.2 mph 5 mph 93% 0.03 in 0 W/m2
06:24 60.7 °F 58.7 °F 30.05 in ESE 0.1 mph 5 mph 93% 0.04 in 0 W/m2
06:29 60.6 °F 58.6 °F 30.05 in ESE 0.2 mph 5 mph 93% 0.04 in 0 W/m2
06:34 60.6 °F 58.6 °F 30.05 in ESE 0.1 mph 5 mph 93% 0.05 in 5 W/m2
06:39 60.5 °F 58.5 °F 30.05 in Calm   1 mph 93% 0.06 in 5 W/m2
06:44 60.5 °F 58.4 °F 30.05 in Calm   1 mph 93% 0.07 in 5 W/m2
06:49 60.4 °F 58.3 °F 30.05 in Calm   1 mph 93% 0.07 in 0 W/m2
06:54 60.3 °F 58.2 °F 30.06 in Calm   1 mph 93% 0.07 in 0 W/m2
06:59 60.2 °F 58.3 °F 30.06 in Calm   1 mph 93.3% 0.08 in 5 W/m2
07:04 60.2 °F 58.5 °F 30.06 in Calm   1 mph 94% 0.08 in 7 W/m2
07:09 60.1 °F 58.4 °F 30.05 in Calm   1 mph 94% 0.07 in 14 W/m2
07:14 60.1 °F 58.4 °F 30.05 in Calm   1 mph 94% 0.07 in 14 W/m2
07:19 60.1 °F 58.4 °F 30.05 in Calm   2 mph 94% 0.08 in 21 W/m2
07:24 60.1 °F 58.4 °F 30.05 in Calm   2 mph 94% 0.09 in 23 W/m2
07:29 60 °F 58.3 °F 30.05 in Calm   2 mph 94% 0.10 in 21 W/m2
07:34 60 °F 58.3 °F 30.05 in Calm   2 mph 94% 0.10 in 21 W/m2
07:39 60.1 °F 58.4 °F 30.05 in Calm     94% 0.08 in 19 W/m2
07:44 60.1 °F 58.4 °F 30.06 in ENE 0.4 mph 5 mph 94% 0.09 in 12 W/m2
07:49 60.1 °F 58.4 °F 30.06 in ENE 0.1 mph 5 mph 94% 0.09 in 16 W/m2
07:54 60.1 °F 58.4 °F 30.06 in Calm   5 mph 94% 0.09 in 18 W/m2
07:59 60.1 °F 58.4 °F 30.06 in Calm   5 mph 94% 0.09 in 19 W/m2
08:09 60.1 °F 58.4 °F 30.06 in Calm     94% 0.09 in 16 W/m2
08:14 60.1 °F 58.4 °F 30.06 in Calm     94% 0.09 in 16 W/m2
08:19 60.2 °F 58.4 °F 30.06 in Calm     94% 0.09 in 16 W/m2
08:24 60.2 °F 58.5 °F 30.06 in Calm     94% 0.09 in 19 W/m2
08:29 60.2 °F 58.6 °F 30.06 in Calm     94.5% 0.09 in 12 W/m2
08:34 60.2 °F 58.8 °F 30.06 in Calm     95% 0.09 in 19 W/m2
08:39 60.2 °F 58.8 °F 30.06 in Calm     95% 0.01 in 25 W/m2
08:44 60.2 °F 58.8 °F 30.06 in Calm     95% 0.01 in 33 W/m2
08:49 60.3 °F 58.8 °F 30.06 in Calm     95% 0.01 in 33 W/m2
08:54 60.3 °F 58.9 °F 30.06 in Calm     95% 0.01 in 35 W/m2
08:59 60.3 °F 58.9 °F 30.06 in Calm     95% 0.01 in 32 W/m2
09:04 60.4 °F 59 °F 30.06 in Calm     95% 0.01 in 47 W/m2
09:09 60.4 °F 59 °F 30.06 in Calm     95% 0.00 in 49 W/m2
09:14 60.5 °F 59.1 °F 30.06 in Calm     95% 0.01 in 54 W/m2
09:19 60.5 °F 59.1 °F 30.06 in Calm     95% 0.01 in 58 W/m2
09:24 60.5 °F 59.1 °F 30.06 in Calm     95% 0.01 in 56 W/m2
09:29 60.5 °F 59.1 °F 30.06 in Calm     95% 0.01 in 54 W/m2
09:34 60.5 °F 59.1 °F 30.06 in Calm     95% 0.01 in 72 W/m2
09:39 60.6 °F 59.2 °F 30.05 in Calm     95% 0.01 in 88 W/m2
09:44 60.7 °F 59.3 °F 30.06 in Calm     95% 0.01 in 72 W/m2
09:49 60.8 °F 59.4 °F 30.06 in Calm     95% 0.01 in 58 W/m2
09:54 60.8 °F 59.4 °F 30.06 in Calm     95% 0.01 in 74 W/m2
09:59 60.8 °F 59.4 °F 30.05 in Calm   1 mph 95% 0.01 in 77 W/m2
10:04 60.8 °F 59.4 °F 30.05 in East 0.3 mph 3 mph 95% 0.01 in 49 W/m2
10:09 60.8 °F 59.4 °F 30.05 in Calm   3 mph 95% 0.01 in 70 W/m2
10:14 60.8 °F 59.4 °F 30.05 in Calm   3 mph 95% 0.01 in 70 W/m2
10:19 60.8 °F 59.3 °F 30.05 in Calm   3 mph 95% 0.01 in 74 W/m2
10:24 60.8 °F 59.4 °F 30.05 in ESE 0.2 mph 3 mph 95% 0.01 in 141 W/m2
10:29 61 °F 59.5 °F 30.05 in ESE 0.2 mph 3 mph 95% 0.01 in 137 W/m2
10:34 61.1 °F 59.7 °F 30.05 in ESE 0.2 mph 3 mph 95% 0.01 in 114 W/m2
10:39 61.2 °F 59.8 °F 30.05 in ESE 0.1 mph 2 mph 95% 0.00 in 113 W/m2
10:44 61.2 °F 59.8 °F 30.05 in Calm   2 mph 95% 0.00 in 67 W/m2
10:49 61.2 °F 59.8 °F 30.05 in Calm   2 mph 95% 0.00 in 74 W/m2
10:54 61.2 °F 59.8 °F 30.05 in ESE 0.1 mph 3 mph 95% 0.01 in 86 W/m2
10:59 61.2 °F 59.8 °F 30.05 in ESE 0.2 mph 3 mph 95% 0.01 in 84 W/m2
11:04 61.2 °F 59.8 °F 30.06 in Calm   3 mph 95% 0.01 in 72 W/m2
11:09 61.3 °F 59.8 °F 30.06 in Calm     95% 0.01 in 62 W/m2
11:14 61.3 °F 59.9 °F 30.06 in Calm     95% 0.01 in 58 W/m2
11:19 61.3 °F 59.9 °F 30.06 in Calm     95% 0.01 in 62 W/m2
11:24 61.3 °F 59.9 °F 30.06 in Calm     95% 0.01 in 53 W/m2
11:29 61.3 °F 59.9 °F 30.06 in ESE 0.2 mph 3 mph 95% 0.01 in 74 W/m2
11:34 61.3 °F 59.9 °F 30.05 in Calm   3 mph 95% 0.01 in 86 W/m2
11:39 61.3 °F 59.9 °F 30.05 in Calm   1 mph 95% 0.01 in 81 W/m2
11:44 61.3 °F 59.9 °F 30.05 in Calm   1 mph 95% 0.01 in 93 W/m2
11:49 61.3 °F 59.9 °F 30.06 in Calm   1 mph 95% 0.01 in 70 W/m2
11:54 61.5 °F 60 °F 30.06 in Calm   1 mph 95% 0.01 in 67 W/m2
11:59 61.5 °F 60.1 °F 30.06 in Calm   1 mph 95% 0.01 in 58 W/m2
12:09 61.5 °F 60.1 °F 30.06 in Calm     95% 0.01 in 72 W/m2
12:14 61.5 °F 60.1 °F 30.05 in Calm     95% 0.01 in 97 W/m2
12:19 61.5 °F 60.1 °F 30.05 in Calm     95% 0.01 in 105 W/m2
12:24 61.5 °F 60.1 °F 30.05 in Calm     95% 0.01 in 58 W/m2
12:29 61.6 °F 60.1 °F 30.05 in Calm     95% 0.01 in 104 W/m2
12:34 61.6 °F 60.2 °F 30.05 in Calm     95% 0.01 in 104 W/m2
12:39 61.6 °F 60.2 °F 30.05 in Calm     95% 0.00 in 76 W/m2
12:44 61.6 °F 60.2 °F 30.05 in Calm   1 mph 95% 0.00 in 67 W/m2
12:49 61.5 °F 60.1 °F 30.05 in Calm   1 mph 95% 0.00 in 40 W/m2
12:54 61.4 °F 60 °F 30.05 in Calm   1 mph 95% 0.01 in 51 W/m2
12:59 61.3 °F 59.9 °F 30.05 in Calm   1 mph 95% 0.01 in 47 W/m2
13:04 61.3 °F 59.8 °F 30.06 in Calm   1 mph 95% 0.01 in 47 W/m2
13:09 61.3 °F 59.8 °F 30.06 in Calm     95% 0.02 in 47 W/m2
13:14 61.3 °F 59.9 °F 30.06 in Calm   2 mph 95% 0.02 in 47 W/m2
13:19 61.3 °F 59.9 °F 30.06 in Calm   2 mph 95% 0.03 in 40 W/m2
13:24 61.3 °F 59.7 °F 30.06 in Calm   2 mph 94.6% 0.04 in 65 W/m2
13:29 61.2 °F 59.5 °F 30.06 in Calm   2 mph 94% 0.05 in 67 W/m2
13:34 61.1 °F 59.4 °F 30.06 in Calm   2 mph 94% 0.07 in 44 W/m2
13:39 61 °F 59.3 °F 30.07 in ESE 0.1 mph 1 mph 94% 0.08 in 37 W/m2
13:44 60.8 °F 59.1 °F 30.06 in ESE 0.1 mph 2 mph 94% 0.09 in 49 W/m2
13:49 60.7 °F 59 °F 30.06 in Calm   2 mph 94% 0.12 in 60 W/m2
13:54 60.7 °F 58.9 °F 30.06 in Calm   2 mph 94% 0.16 in 74 W/m2
13:59 60.5 °F 58.8 °F 30.05 in Calm   2 mph 94% 0.17 in 74 W/m2
14:04 60.5 °F 58.7 °F 30.05 in Calm   2 mph 94% 0.17 in 62 W/m2
14:09 60.5 °F 58.7 °F 30.05 in Calm     94% 0.18 in 53 W/m2
14:14 60.4 °F 58.6 °F 30.05 in Calm     94% 0.18 in 56 W/m2
14:19 60.2 °F 58.5 °F 30.06 in Calm     94% 0.20 in 69 W/m2
14:24 60.3 °F 58.9 °F 30.07 in Calm     95% 0.22 in 51 W/m2
14:29 60.5 °F 59 °F 30.07 in Calm     95% 0.23 in 62 W/m2
14:34 60.5 °F 59.1 °F 30.06 in Calm     95% 0.23 in 69 W/m2
14:39 60.4 °F 59 °F 30.05 in Calm     95% 0.25 in 90 W/m2
14:44 60.3 °F 58.9 °F 30.05 in Calm     95% 0.29 in 91 W/m2
14:49 60.3 °F 58.9 °F 30.05 in Calm     95% 0.31 in 88 W/m2
14:54 60.3 °F 58.9 °F 30.04 in Calm     95% 0.32 in 114 W/m2
14:59 60.3 °F 58.9 °F 30.05 in Calm     95% 0.34 in 125 W/m2
15:04 60.4 °F 59 °F 30.06 in Calm     95% 0.34 in 186 W/m2
15:09 60.6 °F 59.2 °F 30.05 in Calm     95% 0.24 in 195 W/m2
15:14 60.7 °F 59.3 °F 30.05 in Calm     95% 0.24 in 130 W/m2
15:19 60.7 °F 59.3 °F 30.04 in Calm     95% 0.24 in 132 W/m2
15:24 60.8 °F 59.3 °F 30.03 in Calm     95% 0.24 in 116 W/m2
15:29 60.8 °F 59.4 °F 30.04 in Calm     95% 0.24 in 121 W/m2
15:34 60.8 °F 59.4 °F 30.04 in Calm     95% 0.24 in 98 W/m2
15:39 60.9 °F 59.5 °F 30.03 in Calm     95% 0.17 in 74 W/m2
15:44 61 °F 59.6 °F 30.03 in Calm     95% 0.18 in 70 W/m2
15:49 61 °F 59.6 °F 30.03 in Calm     95% 0.18 in 100 W/m2
15:54 61.1 °F 59.6 °F 30.03 in Calm     95% 0.18 in 100 W/m2
15:59 61.1 °F 59.7 °F 30.03 in Calm     95% 0.18 in 98 W/m2
16:00 61.2 °F 59.8 °F 30.03 in Calm     95% 0.18 in 98 W/m2
16:09 61.3 °F 59.9 °F 30.03 in Calm     95% 0.03 in 111 W/m2
16:14 61.4 °F 60 °F 30.03 in Calm     95% 0.03 in 127 W/m2
16:19 61.4 °F 60 °F 30.03 in Calm     95% 0.03 in 132 W/m2
16:24 61.5 °F 60 °F 30.03 in Calm     95% 0.03 in 144 W/m2
16:29 61.5 °F 60.1 °F 30.03 in Calm     95% 0.03 in 134 W/m2
16:34 61.5 °F 60.1 °F 30.03 in Calm     95% 0.03 in 141 W/m2
16:39 61.6 °F 60.2 °F 30.04 in Calm     95% 0.01 in 141 W/m2
16:44 61.8 °F 60.3 °F 30.04 in Calm     95% 0.01 in 121 W/m2
16:49 61.8 °F 60.4 °F 30.04 in Calm     95% 0.01 in 84 W/m2
16:54 61.9 °F 60.5 °F 30.03 in Calm     95% 0.01 in 47 W/m2
16:59 61.8 °F 60.4 °F 30.03 in Calm     95% 0.01 in 62 W/m2
17:04 61.8 °F 60.2 °F 30.03 in Calm     94.3% 0.01 in 67 W/m2
17:09 61.7 °F 60.1 °F 30.03 in Calm     94.3% 0.00 in 62 W/m2
17:14 61.7 °F 60.2 °F 30.02 in Calm     94.7% 0.00 in 53 W/m2
17:19 61.7 °F 60 °F 30.02 in Calm     94% 0.00 in 60 W/m2
17:24 61.7 °F 60 °F 30.02 in Calm     94% 0.00 in 62 W/m2
17:29 61.7 °F 60.2 °F 30.02 in Calm     94.6% 0.00 in 63 W/m2
17:34 62 °F 60.5 °F 30.02 in Calm     95% 0.00 in 81 W/m2
17:39 62 °F 60.6 °F 30.02 in Calm     95% 0.00 in 86 W/m2
17:44 62 °F 60.5 °F 30.02 in Calm     94.7% 0.00 in 83 W/m2
17:49 62.1 °F 60.7 °F 30.02 in Calm     95% 0.00 in 42 W/m2
17:54 62.1 °F 60.6 °F 30.02 in Calm     94.9% 0.00 in 30 W/m2
17:59 62 °F 60.2 °F 30.02 in Calm     94% 0.00 in 26 W/m2
18:04 61.9 °F 60.1 °F 30.02 in Calm     94% 0.00 in 35 W/m2
18:09 61.8 °F 60.1 °F 30.01 in Calm     94% 0.00 in 60 W/m2
18:14 61.8 °F 60.1 °F 30.01 in Calm     94% 0.00 in 63 W/m2
18:19 61.8 °F 60.3 °F 30.01 in Calm     94.8% 0.00 in 60 W/m2
18:24 61.9 °F 60.5 °F 30.01 in Calm     95% 0.00 in 53 W/m2
18:29 62 °F 60.6 °F 30.01 in Calm     95% 0.00 in 63 W/m2
18:34 62 °F 60.6 °F 30.01 in Calm     95% 0.00 in 70 W/m2
18:39 62 °F 60.5 °F 30.01 in Calm     95% 0.00 in 84 W/m2
18:44 61.9 °F 60.5 °F 30.01 in Calm     95% 0.00 in 95 W/m2
18:49 62 °F 60.6 °F 30.01 in Calm     95% 0.00 in 79 W/m2
18:54 62 °F 60.6 °F 30.01 in Calm     95% 0.00 in 81 W/m2
18:59 62.1 °F 60.7 °F 30.01 in Calm     95% 0.00 in 72 W/m2
19:04 62.1 °F 60.7 °F 30.01 in Calm     95% 0.00 in 47 W/m2
19:09 62.2 °F 60.8 °F 30.01 in Calm     95% 0.00 in 32 W/m2
19:14 62.2 °F 60.8 °F 30.01 in Calm     95% 0.00 in 25 W/m2
19:19 62.2 °F 60.7 °F 30.01 in Calm     95% 0.00 in 19 W/m2
19:24 62.1 °F 60.7 °F 30.01 in Calm     95% 0.00 in 18 W/m2
19:29 62.1 °F 60.6 °F 30.01 in Calm     95% 0.00 in 14 W/m2
19:34 62 °F 60.5 °F 30.01 in Calm     95% 0.00 in 21 W/m2
19:39 61.9 °F 60.4 °F 30.01 in Calm     95% 0.00 in 21 W/m2
19:44 61.8 °F 60.4 °F 30.00 in Calm     95% 0.00 in 21 W/m2
19:49 61.7 °F 60.3 °F 30.00 in Calm     95% 0.00 in 14 W/m2
19:54 61.8 °F 60.4 °F 30.00 in Calm     95% 0.00 in 11 W/m2
19:59 61.8 °F 60.4 °F 30.01 in Calm     95% 0.00 in 9 W/m2
20:00 61.8 °F 60.4 °F 30.01 in Calm     95% 0.00 in 7 W/m2
20:09 61.7 °F 60.3 °F 30.01 in Calm     95% 0.00 in 7 W/m2
20:14 61.7 °F 60.3 °F 30.01 in Calm     95% 0.00 in 5 W/m2
20:19 61.7 °F 60.2 °F 30.00 in Calm     95% 0.00 in 0 W/m2
20:24 61.6 °F 60.2 °F 30.00 in Calm     95% 0.00 in 0 W/m2
20:29 61.5 °F 60.1 °F 30.00 in Calm     95% 0.00 in 0 W/m2
20:34 61.4 °F 60 °F 30.01 in Calm     95% 0.00 in 0 W/m2
20:39 61.4 °F 59.9 °F 30.01 in Calm     95% 0.00 in 0 W/m2
20:44 61.3 °F 59.9 °F 30.01 in Calm     95% 0.00 in 0 W/m2
20:49 61.3 °F 59.8 °F 30.01 in Calm     95% 0.00 in 0 W/m2
20:54 61.2 °F 59.8 °F 30.01 in Calm     95% 0.00 in 0 W/m2
20:59 61.1 °F 59.7 °F 30.01 in Calm     95% 0.00 in 0 W/m2
21:04 61.1 °F 59.6 °F 30.01 in Calm     95% 0.00 in 0 W/m2
21:09 61 °F 59.6 °F 30.02 in Calm     95% 0.00 in 0 W/m2
21:14 60.9 °F 59.5 °F 30.02 in Calm     95% 0.00 in 0 W/m2
21:19 60.9 °F 59.4 °F 30.02 in Calm     95% 0.00 in 0 W/m2
21:24 60.8 °F 59.3 °F 30.02 in Calm     95% 0.00 in 0 W/m2
21:29 60.7 °F 59.2 °F 30.02 in Calm     95% 0.00 in 0 W/m2
21:34 60.5 °F 59.1 °F 30.02 in Calm     95% 0.00 in 0 W/m2
21:39 60.4 °F 59 °F 30.02 in Calm     95% 0.00 in 0 W/m2
21:44 60.3 °F 58.9 °F 30.02 in Calm     95% 0.00 in 0 W/m2
21:49 60.2 °F 58.7 °F 30.02 in Calm     95% 0.00 in 0 W/m2
21:54 60 °F 58.5 °F 30.02 in Calm     94.7% 0.00 in 0 W/m2
21:59 60 °F 58.6 °F 30.02 in Calm     95% 0.00 in 0 W/m2
22:04 59.9 °F 58.5 °F 30.02 in Calm     95% 0.00 in 0 W/m2
22:09 59.9 °F 58.5 °F 30.02 in Calm     95% 0.00 in 0 W/m2
22:10 59.9 °F 58.4 °F 30.02 in Calm     95% 0.00 in 0 W/m2
22:30 59.4 °F 58 °F 30.03 in Calm     95% 0.00 in 0 W/m2
23:00 59.2 °F 57.8 °F 30.02 in Calm     95% 0.00 in 0 W/m2
23:30 59.3 °F 57.9 °F 30.02 in Calm     95% 0.00 in 0 W/m2
Hartford County Weather
Compliments of Weather Underground - 4 mb